sensor_id;sensor_type;location;lat;lon;timestamp;temperature;humidity
49222;DHT22;35047;37.588;-122.048;2023-03-14T00:00:09;25.30;57.50
49222;DHT22;35047;37.588;-122.048;2023-03-14T00:02:40;25.20;58.50
49222;DHT22;35047;37.588;-122.048;2023-03-14T00:05:07;25.10;59.20
49222;DHT22;35047;37.588;-122.048;2023-03-14T00:07:38;25.20;60.20
49222;DHT22;35047;37.588;-122.048;2023-03-14T00:10:08;25.30;60.10
49222;DHT22;35047;37.588;-122.048;2023-03-14T00:12:36;25.40;62.20
49222;DHT22;35047;37.588;-122.048;2023-03-14T00:15:02;25.90;61.20
49222;DHT22;35047;37.588;-122.048;2023-03-14T00:17:30;25.90;61.00
49222;DHT22;35047;37.588;-122.048;2023-03-14T00:19:57;26.00;63.10
49222;DHT22;35047;37.588;-122.048;2023-03-14T00:22:30;26.00;59.00
49222;DHT22;35047;37.588;-122.048;2023-03-14T00:24:57;25.80;60.00
49222;DHT22;35047;37.588;-122.048;2023-03-14T00:27:24;25.40;59.40
49222;DHT22;35047;37.588;-122.048;2023-03-14T00:29:50;25.00;62.30
49222;DHT22;35047;37.588;-122.048;2023-03-14T00:32:16;24.70;63.30
49222;DHT22;35047;37.588;-122.048;2023-03-14T00:34:43;24.50;64.00
49222;DHT22;35047;37.588;-122.048;2023-03-14T00:37:09;24.60;63.80
49222;DHT22;35047;37.588;-122.048;2023-03-14T00:39:36;24.50;64.20
49222;DHT22;35047;37.588;-122.048;2023-03-14T00:42:02;24.50;63.40
49222;DHT22;35047;37.588;-122.048;2023-03-14T00:44:29;24.70;66.80
49222;DHT22;35047;37.588;-122.048;2023-03-14T00:46:57;24.80;65.10
49222;DHT22;35047;37.588;-122.048;2023-03-14T00:49:24;24.90;62.30
49222;DHT22;35047;37.588;-122.048;2023-03-14T00:51:50;24.90;61.80
49222;DHT22;35047;37.588;-122.048;2023-03-14T00:54:18;24.70;63.80
49222;DHT22;35047;37.588;-122.048;2023-03-14T00:56:45;24.60;65.90
49222;DHT22;35047;37.588;-122.048;2023-03-14T00:59:11;24.70;62.70
49222;DHT22;35047;37.588;-122.048;2023-03-14T01:01:39;24.50;62.70
49222;DHT22;35047;37.588;-122.048;2023-03-14T01:04:05;24.40;62.60
49222;DHT22;35047;37.588;-122.048;2023-03-14T01:06:32;24.50;62.70
49222;DHT22;35047;37.588;-122.048;2023-03-14T01:08:59;24.40;63.70
49222;DHT22;35047;37.588;-122.048;2023-03-14T01:11:27;24.10;64.50
49222;DHT22;35047;37.588;-122.048;2023-03-14T01:13:54;23.90;64.00
49222;DHT22;35047;37.588;-122.048;2023-03-14T01:16:23;23.80;64.80
49222;DHT22;35047;37.588;-122.048;2023-03-14T01:18:49;23.50;65.80
49222;DHT22;35047;37.588;-122.048;2023-03-14T01:21:28;23.50;65.90
49222;DHT22;35047;37.588;-122.048;2023-03-14T01:23:57;23.50;67.90
49222;DHT22;35047;37.588;-122.048;2023-03-14T01:26:27;23.40;66.10
49222;DHT22;35047;37.588;-122.048;2023-03-14T01:28:55;23.20;66.40
49222;DHT22;35047;37.588;-122.048;2023-03-14T01:31:22;23.20;67.10
49222;DHT22;35047;37.588;-122.048;2023-03-14T01:33:49;23.20;66.80
49222;DHT22;35047;37.588;-122.048;2023-03-14T01:36:16;23.10;67.50
49222;DHT22;35047;37.588;-122.048;2023-03-14T01:38:42;22.90;67.30
49222;DHT22;35047;37.588;-122.048;2023-03-14T01:41:14;22.70;68.40
49222;DHT22;35047;37.588;-122.048;2023-03-14T01:43:41;22.60;68.30
49222;DHT22;35047;37.588;-122.048;2023-03-14T01:51:24;22.30;69.40
49222;DHT22;35047;37.588;-122.048;2023-03-14T01:53:54;22.30;69.70
49222;DHT22;35047;37.588;-122.048;2023-03-14T01:56:23;22.40;70.00
49222;DHT22;35047;37.588;-122.048;2023-03-14T01:58:51;22.60;71.70
49222;DHT22;35047;37.588;-122.048;2023-03-14T02:01:21;22.70;69.10
49222;DHT22;35047;37.588;-122.048;2023-03-14T02:03:54;22.80;69.00
49222;DHT22;35047;37.588;-122.048;2023-03-14T02:06:26;22.70;68.80
49222;DHT22;35047;37.588;-122.048;2023-03-14T02:08:55;22.70;69.00
49222;DHT22;35047;37.588;-122.048;2023-03-14T02:11:23;22.30;69.60
49222;DHT22;35047;37.588;-122.048;2023-03-14T02:13:53;22.40;69.70
49222;DHT22;35047;37.588;-122.048;2023-03-14T02:16:19;22.30;69.90
49222;DHT22;35047;37.588;-122.048;2023-03-14T02:18:46;22.00;70.80
49222;DHT22;35047;37.588;-122.048;2023-03-14T02:27:24;22.00;71.50
49222;DHT22;35047;37.588;-122.048;2023-03-14T02:29:53;21.90;73.00
49222;DHT22;35047;37.588;-122.048;2023-03-14T02:32:23;22.10;71.40
49222;DHT22;35047;37.588;-122.048;2023-03-14T02:34:55;22.20;71.80
49222;DHT22;35047;37.588;-122.048;2023-03-14T02:37:23;22.20;70.80
49222;DHT22;35047;37.588;-122.048;2023-03-14T02:39:53;22.00;71.50
49222;DHT22;35047;37.588;-122.048;2023-03-14T02:42:20;22.20;71.80
49222;DHT22;35047;37.588;-122.048;2023-03-14T02:45:01;22.00;71.60
49222;DHT22;35047;37.588;-122.048;2023-03-14T02:47:59;22.00;72.90
49222;DHT22;35047;37.588;-122.048;2023-03-14T02:50:30;22.30;71.90
49222;DHT22;35047;37.588;-122.048;2023-03-14T02:52:59;22.40;72.80
49222;DHT22;35047;37.588;-122.048;2023-03-14T02:55:26;22.50;71.80
49222;DHT22;35047;37.588;-122.048;2023-03-14T02:57:53;22.50;71.60
49222;DHT22;35047;37.588;-122.048;2023-03-14T03:00:20;22.50;71.90
49222;DHT22;35047;37.588;-122.048;2023-03-14T03:02:47;22.60;71.90
49222;DHT22;35047;37.588;-122.048;2023-03-14T03:05:13;22.80;73.50
49222;DHT22;35047;37.588;-122.048;2023-03-14T03:07:40;22.90;71.40
49222;DHT22;35047;37.588;-122.048;2023-03-14T03:10:07;23.00;73.20
49222;DHT22;35047;37.588;-122.048;2023-03-14T03:12:34;23.10;71.50
49222;DHT22;35047;37.588;-122.048;2023-03-14T03:15:00;23.20;72.50
49222;DHT22;35047;37.588;-122.048;2023-03-14T03:17:28;23.20;71.90
49222;DHT22;35047;37.588;-122.048;2023-03-14T03:19:54;23.30;71.60
49222;DHT22;35047;37.588;-122.048;2023-03-14T03:22:21;23.30;70.20
49222;DHT22;35047;37.588;-122.048;2023-03-14T03:24:49;23.20;70.60
49222;DHT22;35047;37.588;-122.048;2023-03-14T03:27:15;23.30;72.00
49222;DHT22;35047;37.588;-122.048;2023-03-14T03:29:42;23.00;71.30
49222;DHT22;35047;37.588;-122.048;2023-03-14T03:32:08;23.10;70.00
49222;DHT22;35047;37.588;-122.048;2023-03-14T03:34:35;23.10;72.00
49222;DHT22;35047;37.588;-122.048;2023-03-14T03:37:01;23.20;72.30
49222;DHT22;35047;37.588;-122.048;2023-03-14T03:39:28;23.20;71.70
49222;DHT22;35047;37.588;-122.048;2023-03-14T03:41:54;23.10;70.70
49222;DHT22;35047;37.588;-122.048;2023-03-14T03:44:21;23.10;72.10
49222;DHT22;35047;37.588;-122.048;2023-03-14T03:46:47;22.90;69.90
49222;DHT22;35047;37.588;-122.048;2023-03-14T03:49:14;22.80;72.90
49222;DHT22;35047;37.588;-122.048;2023-03-14T03:51:41;22.60;70.40
49222;DHT22;35047;37.588;-122.048;2023-03-14T03:54:07;22.80;73.50
49222;DHT22;35047;37.588;-122.048;2023-03-14T03:56:34;22.90;73.20
49222;DHT22;35047;37.588;-122.048;2023-03-14T03:59:00;23.10;73.00
49222;DHT22;35047;37.588;-122.048;2023-03-14T04:01:27;23.10;72.90
49222;DHT22;35047;37.588;-122.048;2023-03-14T04:03:54;23.10;72.10
49222;DHT22;35047;37.588;-122.048;2023-03-14T04:06:20;23.00;72.70
49222;DHT22;35047;37.588;-122.048;2023-03-14T04:08:47;23.00;71.80
49222;DHT22;35047;37.588;-122.048;2023-03-14T04:11:14;23.00;71.90
49222;DHT22;35047;37.588;-122.048;2023-03-14T04:13:41;22.90;71.50
49222;DHT22;35047;37.588;-122.048;2023-03-14T04:16:19;22.90;69.90
49222;DHT22;35047;37.588;-122.048;2023-03-14T04:18:47;22.90;72.50
49222;DHT22;35047;37.588;-122.048;2023-03-14T04:21:14;22.80;69.20
49222;DHT22;35047;37.588;-122.048;2023-03-14T04:23:40;22.60;69.50
49222;DHT22;35047;37.588;-122.048;2023-03-14T04:26:07;22.50;70.00
49222;DHT22;35047;37.588;-122.048;2023-03-14T04:28:34;22.40;70.20
49222;DHT22;35047;37.588;-122.048;2023-03-14T04:31:13;22.60;72.90
49222;DHT22;35047;37.588;-122.048;2023-03-14T04:33:40;22.60;72.20
49222;DHT22;35047;37.588;-122.048;2023-03-14T04:36:07;22.40;70.40
49222;DHT22;35047;37.588;-122.048;2023-03-14T04:38:34;22.40;71.70
49222;DHT22;35047;37.588;-122.048;2023-03-14T04:41:01;22.50;73.60
49222;DHT22;35047;37.588;-122.048;2023-03-14T04:43:28;22.60;73.50
49222;DHT22;35047;37.588;-122.048;2023-03-14T04:45:55;22.50;72.20
49222;DHT22;35047;37.588;-122.048;2023-03-14T04:48:23;22.60;73.10
49222;DHT22;35047;37.588;-122.048;2023-03-14T04:50:49;22.70;73.30
49222;DHT22;35047;37.588;-122.048;2023-03-14T04:53:17;22.50;71.80
49222;DHT22;35047;37.588;-122.048;2023-03-14T04:55:51;22.70;72.40
49222;DHT22;35047;37.588;-122.048;2023-03-14T04:58:19;22.70;72.80
49222;DHT22;35047;37.588;-122.048;2023-03-14T05:00:46;22.80;71.90
49222;DHT22;35047;37.588;-122.048;2023-03-14T05:03:15;22.60;71.30
49222;DHT22;35047;37.588;-122.048;2023-03-14T05:05:42;22.60;70.90
49222;DHT22;35047;37.588;-122.048;2023-03-14T05:08:09;22.60;73.60
49222;DHT22;35047;37.588;-122.048;2023-03-14T05:10:35;22.70;73.20
49222;DHT22;35047;37.588;-122.048;2023-03-14T05:13:02;22.70;71.30
49222;DHT22;35047;37.588;-122.048;2023-03-14T05:15:29;22.60;73.60
49222;DHT22;35047;37.588;-122.048;2023-03-14T05:17:55;22.60;73.50
49222;DHT22;35047;37.588;-122.048;2023-03-14T05:20:22;22.40;72.70
49222;DHT22;35047;37.588;-122.048;2023-03-14T05:22:48;22.60;73.50
49222;DHT22;35047;37.588;-122.048;2023-03-14T05:25:15;22.60;73.60
49222;DHT22;35047;37.588;-122.048;2023-03-14T05:27:42;22.50;73.20
49222;DHT22;35047;37.588;-122.048;2023-03-14T05:30:09;22.40;71.90
49222;DHT22;35047;37.588;-122.048;2023-03-14T05:32:36;22.30;72.90
49222;DHT22;35047;37.588;-122.048;2023-03-14T05:35:02;22.10;72.60
49222;DHT22;35047;37.588;-122.048;2023-03-14T05:37:30;22.10;72.90
49222;DHT22;35047;37.588;-122.048;2023-03-14T05:39:56;22.00;74.50
49222;DHT22;35047;37.588;-122.048;2023-03-14T05:42:23;22.10;74.80
49222;DHT22;35047;37.588;-122.048;2023-03-14T05:44:49;22.10;73.70
49222;DHT22;35047;37.588;-122.048;2023-03-14T05:47:16;22.20;75.20
49222;DHT22;35047;37.588;-122.048;2023-03-14T05:49:42;22.20;75.10
49222;DHT22;35047;37.588;-122.048;2023-03-14T05:52:29;22.20;73.00
49222;DHT22;35047;37.588;-122.048;2023-03-14T05:54:55;22.10;75.20
49222;DHT22;35047;37.588;-122.048;2023-03-14T05:57:22;22.20;73.90
49222;DHT22;35047;37.588;-122.048;2023-03-14T05:59:48;22.20;75.00
49222;DHT22;35047;37.588;-122.048;2023-03-14T06:02:15;22.30;74.90
49222;DHT22;35047;37.588;-122.048;2023-03-14T06:04:41;22.20;74.90
49222;DHT22;35047;37.588;-122.048;2023-03-14T06:07:08;22.20;73.40
49222;DHT22;35047;37.588;-122.048;2023-03-14T06:09:34;22.10;74.80
49222;DHT22;35047;37.588;-122.048;2023-03-14T06:12:01;22.20;74.80
49222;DHT22;35047;37.588;-122.048;2023-03-14T06:14:28;22.30;74.70
49222;DHT22;35047;37.588;-122.048;2023-03-14T06:16:54;22.30;74.00
49222;DHT22;35047;37.588;-122.048;2023-03-14T06:19:21;22.30;73.70
49222;DHT22;35047;37.588;-122.048;2023-03-14T06:21:48;22.30;74.90
49222;DHT22;35047;37.588;-122.048;2023-03-14T06:24:15;22.20;74.00
49222;DHT22;35047;37.588;-122.048;2023-03-14T06:26:42;22.10;73.30
49222;DHT22;35047;37.588;-122.048;2023-03-14T06:29:08;22.10;73.70
49222;DHT22;35047;37.588;-122.048;2023-03-14T06:31:35;22.00;73.10
49222;DHT22;35047;37.588;-122.048;2023-03-14T06:34:02;21.90;74.80
49222;DHT22;35047;37.588;-122.048;2023-03-14T06:36:29;21.90;74.70
49222;DHT22;35047;37.588;-122.048;2023-03-14T06:38:55;21.90;75.90
49222;DHT22;35047;37.588;-122.048;2023-03-14T06:41:22;22.00;75.40
49222;DHT22;35047;37.588;-122.048;2023-03-14T06:43:50;22.00;75.80
49222;DHT22;35047;37.588;-122.048;2023-03-14T06:46:16;22.00;75.60
49222;DHT22;35047;37.588;-122.048;2023-03-14T06:48:43;22.00;75.70
49222;DHT22;35047;37.588;-122.048;2023-03-14T06:51:09;22.00;76.40
49222;DHT22;35047;37.588;-122.048;2023-03-14T06:53:36;22.00;74.10
49222;DHT22;35047;37.588;-122.048;2023-03-14T06:56:03;22.00;75.80
49222;DHT22;35047;37.588;-122.048;2023-03-14T06:58:29;21.90;75.00
49222;DHT22;35047;37.588;-122.048;2023-03-14T07:00:57;22.00;76.30
49222;DHT22;35047;37.588;-122.048;2023-03-14T07:03:24;22.00;75.00
49222;DHT22;35047;37.588;-122.048;2023-03-14T07:05:51;22.00;75.40
49222;DHT22;35047;37.588;-122.048;2023-03-14T07:08:18;21.80;74.40
49222;DHT22;35047;37.588;-122.048;2023-03-14T07:10:45;21.90;74.90
49222;DHT22;35047;37.588;-122.048;2023-03-14T07:13:11;22.00;76.00
49222;DHT22;35047;37.588;-122.048;2023-03-14T07:15:38;22.00;76.20
49222;DHT22;35047;37.588;-122.048;2023-03-14T07:18:05;22.00;76.50
49222;DHT22;35047;37.588;-122.048;2023-03-14T07:20:31;21.90;76.10
49222;DHT22;35047;37.588;-122.048;2023-03-14T07:22:58;21.90;76.30
49222;DHT22;35047;37.588;-122.048;2023-03-14T07:25:29;22.00;76.90
49222;DHT22;35047;37.588;-122.048;2023-03-14T07:27:55;22.00;76.80
49222;DHT22;35047;37.588;-122.048;2023-03-14T07:30:22;21.90;75.70
49222;DHT22;35047;37.588;-122.048;2023-03-14T07:32:48;22.00;77.30
49222;DHT22;35047;37.588;-122.048;2023-03-14T07:35:15;22.00;77.40
49222;DHT22;35047;37.588;-122.048;2023-03-14T07:37:42;22.10;77.50
49222;DHT22;35047;37.588;-122.048;2023-03-14T07:40:09;22.10;77.50
49222;DHT22;35047;37.588;-122.048;2023-03-14T07:42:37;22.00;78.20
49222;DHT22;35047;37.588;-122.048;2023-03-14T07:45:04;22.00;78.20
49222;DHT22;35047;37.588;-122.048;2023-03-14T07:47:31;22.00;78.70
49222;DHT22;35047;37.588;-122.048;2023-03-14T07:49:57;22.00;78.60
49222;DHT22;35047;37.588;-122.048;2023-03-14T07:52:24;21.90;79.30
49222;DHT22;35047;37.588;-122.048;2023-03-14T07:54:50;21.90;79.50
49222;DHT22;35047;37.588;-122.048;2023-03-14T07:57:17;21.90;78.90
49222;DHT22;35047;37.588;-122.048;2023-03-14T07:59:43;21.90;79.80
49222;DHT22;35047;37.588;-122.048;2023-03-14T08:02:11;21.90;79.30
49222;DHT22;35047;37.588;-122.048;2023-03-14T08:04:39;21.90;80.10
49222;DHT22;35047;37.588;-122.048;2023-03-14T08:07:05;21.90;79.90
49222;DHT22;35047;37.588;-122.048;2023-03-14T08:09:32;21.90;80.40
49222;DHT22;35047;37.588;-122.048;2023-03-14T08:11:59;21.90;80.40
49222;DHT22;35047;37.588;-122.048;2023-03-14T08:14:25;21.90;80.10
49222;DHT22;35047;37.588;-122.048;2023-03-14T08:16:52;21.90;80.80
49222;DHT22;35047;37.588;-122.048;2023-03-14T08:19:19;21.80;79.40
49222;DHT22;35047;37.588;-122.048;2023-03-14T08:21:46;21.70;79.30
49222;DHT22;35047;37.588;-122.048;2023-03-14T08:24:13;21.70;80.50
49222;DHT22;35047;37.588;-122.048;2023-03-14T08:26:39;21.70;81.00
49222;DHT22;35047;37.588;-122.048;2023-03-14T08:29:06;21.70;81.40
49222;DHT22;35047;37.588;-122.048;2023-03-14T08:31:35;21.60;81.20
49222;DHT22;35047;37.588;-122.048;2023-03-14T08:34:03;21.60;81.40
49222;DHT22;35047;37.588;-122.048;2023-03-14T08:36:29;21.70;81.60
49222;DHT22;35047;37.588;-122.048;2023-03-14T08:38:57;21.70;81.60
49222;DHT22;35047;37.588;-122.048;2023-03-14T08:41:23;21.70;81.50
49222;DHT22;35047;37.588;-122.048;2023-03-14T08:43:50;21.60;81.50
49222;DHT22;35047;37.588;-122.048;2023-03-14T08:46:17;21.60;82.00
49222;DHT22;35047;37.588;-122.048;2023-03-14T08:48:43;21.60;82.10
49222;DHT22;35047;37.588;-122.048;2023-03-14T08:51:12;21.60;82.00
49222;DHT22;35047;37.588;-122.048;2023-03-14T08:53:40;21.60;82.00
49222;DHT22;35047;37.588;-122.048;2023-03-14T08:56:07;21.50;82.30
49222;DHT22;35047;37.588;-122.048;2023-03-14T08:58:36;21.60;82.70
49222;DHT22;35047;37.588;-122.048;2023-03-14T09:01:05;21.60;82.50
49222;DHT22;35047;37.588;-122.048;2023-03-14T09:03:32;21.50;82.60
49222;DHT22;35047;37.588;-122.048;2023-03-14T09:06:05;21.60;82.80
49222;DHT22;35047;37.588;-122.048;2023-03-14T09:08:32;21.60;82.70
49222;DHT22;35047;37.588;-122.048;2023-03-14T09:10:59;21.60;82.70
49222;DHT22;35047;37.588;-122.048;2023-03-14T09:13:26;21.50;82.80
49222;DHT22;35047;37.588;-122.048;2023-03-14T09:15:54;21.60;83.20
49222;DHT22;35047;37.588;-122.048;2023-03-14T09:18:21;21.60;83.00
49222;DHT22;35047;37.588;-122.048;2023-03-14T09:20:48;21.50;81.60
49222;DHT22;35047;37.588;-122.048;2023-03-14T09:23:15;21.60;83.20
49222;DHT22;35047;37.588;-122.048;2023-03-14T09:25:42;21.60;83.30
49222;DHT22;35047;37.588;-122.048;2023-03-14T09:28:08;21.50;83.10
49222;DHT22;35047;37.588;-122.048;2023-03-14T09:30:35;21.50;83.40
49222;DHT22;35047;37.588;-122.048;2023-03-14T09:33:04;21.50;83.60
49222;DHT22;35047;37.588;-122.048;2023-03-14T09:35:31;21.50;83.70
49222;DHT22;35047;37.588;-122.048;2023-03-14T09:37:59;21.50;83.80
49222;DHT22;35047;37.588;-122.048;2023-03-14T09:40:33;21.50;84.00
49222;DHT22;35047;37.588;-122.048;2023-03-14T09:43:01;21.40;84.10
49222;DHT22;35047;37.588;-122.048;2023-03-14T09:45:39;21.40;84.20
49222;DHT22;35047;37.588;-122.048;2023-03-14T09:48:09;21.40;84.20
49222;DHT22;35047;37.588;-122.048;2023-03-14T09:50:45;21.40;84.30
49222;DHT22;35047;37.588;-122.048;2023-03-14T09:53:17;21.40;84.40
49222;DHT22;35047;37.588;-122.048;2023-03-14T09:55:46;21.40;84.50
49222;DHT22;35047;37.588;-122.048;2023-03-14T09:58:18;21.40;84.70
49222;DHT22;35047;37.588;-122.048;2023-03-14T10:00:45;21.40;84.80
49222;DHT22;35047;37.588;-122.048;2023-03-14T10:05:42;21.30;85.00
49222;DHT22;35047;37.588;-122.048;2023-03-14T10:08:13;21.30;85.10
49222;DHT22;35047;37.588;-122.048;2023-03-14T10:10:41;21.30;85.10
49222;DHT22;35047;37.588;-122.048;2023-03-14T10:18:21;21.30;85.50
49222;DHT22;35047;37.588;-122.048;2023-03-14T10:20:49;21.20;85.50
49222;DHT22;35047;37.588;-122.048;2023-03-14T10:23:18;21.30;85.60
49222;DHT22;35047;37.588;-122.048;2023-03-14T10:28:43;21.20;85.70
49222;DHT22;35047;37.588;-122.048;2023-03-14T10:31:10;21.20;85.80
49222;DHT22;35047;37.588;-122.048;2023-03-14T10:33:38;21.20;86.00
49222;DHT22;35047;37.588;-122.048;2023-03-14T10:36:40;21.10;86.10
49222;DHT22;35047;37.588;-122.048;2023-03-14T10:42:14;21.10;86.10
49222;DHT22;35047;37.588;-122.048;2023-03-14T10:44:41;21.10;86.30
49222;DHT22;35047;37.588;-122.048;2023-03-14T10:47:17;21.10;86.40
49222;DHT22;35047;37.588;-122.048;2023-03-14T10:49:45;21.10;86.50
49222;DHT22;35047;37.588;-122.048;2023-03-14T10:52:27;21.10;86.50
49222;DHT22;35047;37.588;-122.048;2023-03-14T10:55:01;21.10;86.50
49222;DHT22;35047;37.588;-122.048;2023-03-14T10:57:28;21.10;86.50
49222;DHT22;35047;37.588;-122.048;2023-03-14T10:59:55;21.00;86.60
49222;DHT22;35047;37.588;-122.048;2023-03-14T11:07:55;21.00;86.80
49222;DHT22;35047;37.588;-122.048;2023-03-14T11:10:34;21.00;86.90
49222;DHT22;35047;37.588;-122.048;2023-03-14T11:21:02;20.70;88.10
49222;DHT22;35047;37.588;-122.048;2023-03-14T11:26:37;20.70;87.20
49222;DHT22;35047;37.588;-122.048;2023-03-14T11:29:36;20.40;87.20
49222;DHT22;35047;37.588;-122.048;2023-03-14T11:35:04;20.40;88.10
49222;DHT22;35047;37.588;-122.048;2023-03-14T11:37:38;20.30;88.50
49222;DHT22;35047;37.588;-122.048;2023-03-14T11:40:17;20.30;89.60
49222;DHT22;35047;37.588;-122.048;2023-03-14T11:42:48;20.50;90.10
49222;DHT22;35047;37.588;-122.048;2023-03-14T11:45:20;20.50;89.30
49222;DHT22;35047;37.588;-122.048;2023-03-14T11:47:58;20.60;89.00
49222;DHT22;35047;37.588;-122.048;2023-03-14T11:50:28;20.60;88.70
49222;DHT22;35047;37.588;-122.048;2023-03-14T11:53:14;20.60;89.40
49222;DHT22;35047;37.588;-122.048;2023-03-14T11:55:42;20.50;89.10
49222;DHT22;35047;37.588;-122.048;2023-03-14T11:58:45;20.50;88.80
49222;DHT22;35047;37.588;-122.048;2023-03-14T12:01:13;20.50;88.80
49222;DHT22;35047;37.588;-122.048;2023-03-14T12:04:00;20.50;89.00
49222;DHT22;35047;37.588;-122.048;2023-03-14T12:06:53;20.50;89.20
49222;DHT22;35047;37.588;-122.048;2023-03-14T12:09:22;20.60;89.10
49222;DHT22;35047;37.588;-122.048;2023-03-14T12:11:58;20.60;88.80
49222;DHT22;35047;37.588;-122.048;2023-03-14T12:14:32;20.50;89.10
49222;DHT22;35047;37.588;-122.048;2023-03-14T12:17:06;20.50;89.10
49222;DHT22;35047;37.588;-122.048;2023-03-14T12:19:39;20.60;89.60
49222;DHT22;35047;37.588;-122.048;2023-03-14T12:22:13;20.50;89.10
49222;DHT22;35047;37.588;-122.048;2023-03-14T12:25:03;20.40;88.50
49222;DHT22;35047;37.588;-122.048;2023-03-14T12:41:03;20.30;88.90
49222;DHT22;35047;37.588;-122.048;2023-03-14T12:43:33;20.20;88.70
49222;DHT22;35047;37.588;-122.048;2023-03-14T12:46:08;20.00;88.50
49222;DHT22;35047;37.588;-122.048;2023-03-14T12:48:35;19.90;89.50
49222;DHT22;35047;37.588;-122.048;2023-03-14T12:51:11;19.80;89.40
49222;DHT22;35047;37.588;-122.048;2023-03-14T12:56:23;19.70;89.10
49222;DHT22;35047;37.588;-122.048;2023-03-14T13:01:26;19.50;88.90
49222;DHT22;35047;37.588;-122.048;2023-03-14T13:03:55;19.50;90.10
49222;DHT22;35047;37.588;-122.048;2023-03-14T13:06:49;19.50;90.10
49222;DHT22;35047;37.588;-122.048;2023-03-14T13:12:11;19.30;90.70
49222;DHT22;35047;37.588;-122.048;2023-03-14T13:14:48;19.30;90.70
49222;DHT22;35047;37.588;-122.048;2023-03-14T13:17:19;19.30;90.30
49222;DHT22;35047;37.588;-122.048;2023-03-14T13:19:55;19.20;90.20
49222;DHT22;35047;37.588;-122.048;2023-03-14T13:22:26;19.20;90.70
49222;DHT22;35047;37.588;-122.048;2023-03-14T13:25:05;19.20;90.10
49222;DHT22;35047;37.588;-122.048;2023-03-14T13:27:34;19.20;90.70
49222;DHT22;35047;37.588;-122.048;2023-03-14T13:30:25;19.00;90.60
49222;DHT22;35047;37.588;-122.048;2023-03-14T13:32:54;19.10;90.50
49222;DHT22;35047;37.588;-122.048;2023-03-14T13:35:29;19.20;90.80
49222;DHT22;35047;37.588;-122.048;2023-03-14T13:38:04;19.10;90.20
49222;DHT22;35047;37.588;-122.048;2023-03-14T13:40:32;19.10;90.30
49222;DHT22;35047;37.588;-122.048;2023-03-14T13:46:06;19.00;90.70
49222;DHT22;35047;37.588;-122.048;2023-03-14T13:48:43;19.00;90.30
49222;DHT22;35047;37.588;-122.048;2023-03-14T13:51:13;18.80;91.10
49222;DHT22;35047;37.588;-122.048;2023-03-14T13:53:48;18.90;90.60
49222;DHT22;35047;37.588;-122.048;2023-03-14T13:56:22;18.90;90.70
49222;DHT22;35047;37.588;-122.048;2023-03-14T13:58:49;18.80;91.30
49222;DHT22;35047;37.588;-122.048;2023-03-14T14:03:50;18.90;91.80
49222;DHT22;35047;37.588;-122.048;2023-03-14T14:06:38;18.90;91.10
49222;DHT22;35047;37.588;-122.048;2023-03-14T14:09:35;19.00;91.20
49222;DHT22;35047;37.588;-122.048;2023-03-14T14:12:11;19.00;91.00
49222;DHT22;35047;37.588;-122.048;2023-03-14T14:14:54;19.00;91.20
49222;DHT22;35047;37.588;-122.048;2023-03-14T14:17:35;18.90;91.00
49222;DHT22;35047;37.588;-122.048;2023-03-14T14:20:05;18.90;91.50
49222;DHT22;35047;37.588;-122.048;2023-03-14T14:22:33;18.90;91.80
49222;DHT22;35047;37.588;-122.048;2023-03-14T14:25:00;18.90;91.30
49222;DHT22;35047;37.588;-122.048;2023-03-14T14:27:37;18.80;91.40
49222;DHT22;35047;37.588;-122.048;2023-03-14T14:32:45;18.70;91.60
49222;DHT22;35047;37.588;-122.048;2023-03-14T14:35:33;18.70;91.70
49222;DHT22;35047;37.588;-122.048;2023-03-14T14:38:00;18.70;91.10
49222;DHT22;35047;37.588;-122.048;2023-03-14T14:40:29;18.60;91.40
49222;DHT22;35047;37.588;-122.048;2023-03-14T14:43:03;18.50;91.50
49222;DHT22;35047;37.588;-122.048;2023-03-14T14:45:30;18.40;91.60
49222;DHT22;35047;37.588;-122.048;2023-03-14T14:50:52;18.40;92.20
49222;DHT22;35047;37.588;-122.048;2023-03-14T14:53:35;18.40;92.50
49222;DHT22;35047;37.588;-122.048;2023-03-14T14:58:36;18.40;92.10
49222;DHT22;35047;37.588;-122.048;2023-03-14T15:03:44;18.50;93.10
49222;DHT22;35047;37.588;-122.048;2023-03-14T15:06:13;18.50;92.30
49222;DHT22;35047;37.588;-122.048;2023-03-14T15:08:40;18.50;92.10
49222;DHT22;35047;37.588;-122.048;2023-03-14T15:11:08;18.50;92.10
49222;DHT22;35047;37.588;-122.048;2023-03-14T15:13:35;18.40;92.60
49222;DHT22;35047;37.588;-122.048;2023-03-14T15:16:02;18.40;92.40
49222;DHT22;35047;37.588;-122.048;2023-03-14T15:18:29;18.40;92.60
49222;DHT22;35047;37.588;-122.048;2023-03-14T15:20:56;18.40;92.70
49222;DHT22;35047;37.588;-122.048;2023-03-14T15:23:22;18.30;92.70
49222;DHT22;35047;37.588;-122.048;2023-03-14T15:25:50;18.20;92.80
49222;DHT22;35047;37.588;-122.048;2023-03-14T15:28:24;18.30;92.80
49222;DHT22;35047;37.588;-122.048;2023-03-14T15:30:53;18.20;93.20
49222;DHT22;35047;37.588;-122.048;2023-03-14T15:33:20;18.20;93.30
49222;DHT22;35047;37.588;-122.048;2023-03-14T15:35:47;18.20;93.60
49222;DHT22;35047;37.588;-122.048;2023-03-14T15:38:18;18.20;93.60
49222;DHT22;35047;37.588;-122.048;2023-03-14T15:40:50;18.10;93.80
49222;DHT22;35047;37.588;-122.048;2023-03-14T15:43:18;18.20;94.10
49222;DHT22;35047;37.588;-122.048;2023-03-14T15:45:45;18.20;93.90
49222;DHT22;35047;37.588;-122.048;2023-03-14T15:48:17;18.20;93.60
49222;DHT22;35047;37.588;-122.048;2023-03-14T15:50:44;18.30;93.70
49222;DHT22;35047;37.588;-122.048;2023-03-14T15:53:10;18.30;93.70
49222;DHT22;35047;37.588;-122.048;2023-03-14T15:55:37;18.40;93.60
49222;DHT22;35047;37.588;-122.048;2023-03-14T15:58:05;18.40;93.90
49222;DHT22;35047;37.588;-122.048;2023-03-14T16:00:32;18.40;93.60
49222;DHT22;35047;37.588;-122.048;2023-03-14T16:02:58;18.40;93.60
49222;DHT22;35047;37.588;-122.048;2023-03-14T16:05:25;18.40;93.70
49222;DHT22;35047;37.588;-122.048;2023-03-14T16:07:52;18.40;94.00
49222;DHT22;35047;37.588;-122.048;2023-03-14T16:10:18;18.50;94.40
49222;DHT22;35047;37.588;-122.048;2023-03-14T16:12:47;18.60;93.40
49222;DHT22;35047;37.588;-122.048;2023-03-14T16:15:14;18.60;93.30
49222;DHT22;35047;37.588;-122.048;2023-03-14T16:17:40;18.50;93.10
49222;DHT22;35047;37.588;-122.048;2023-03-14T16:20:10;18.50;93.30
49222;DHT22;35047;37.588;-122.048;2023-03-14T16:22:36;18.50;93.30